Del Mar, California
Current Conditions -  °F | °C
As of 3:55 PM on Wednesday 22 Oct 2014 (Local Time) from KNKX Reporting Station
Scattered Clouds Scattered Clouds  
Wind Chill: 77°   Ceiling: Unl
Heat Index: 79°   Visibility: 10mi
Dew Point: 58°   Wind: 7mph
Humidity: 52%   Direction: 320°NW
Pressure: 29.9"   Gusts: NA
Location:  32.96°N, 117.27°W
Report Text: KNKX 222255Z 32006KT 10SM SCT180 25/14 A2990 RMK AO2 SLP120 T02500144
Loading
Personal Weather Stations






























Interactive Weather Map New forecast layout! Learn more

10-Day Weather Forecast

Advertisements
Track Severe Weather on mobile